Burksville, Illinois
Current Conditions -  °F | °C
As of 5:53 PM on Saturday 22 Nov 2014 (Local Time) from KCPS Reporting Station
Light Rain Light Rain  
Wind Chill: 56°   Ceiling: 2500
Heat Index: 56°   Visibility: 10mi
Dew Point: 49°   Wind: 9mph
Humidity: 77%   Direction: 180°S
Pressure: 29.96"   Gusts: 16mph
Location:  38.3034°N, 90.1358°W
Report Text: KCPS 222353Z 18008G14KT 10SM -RA OVC025 13/09 A2996 RMK AO2 RAB38 SLP144 P0000 60004 T01330094 10156 20122 56012
Loading
Personal Weather Stations






























Interactive Weather Map New forecast layout! Learn more

10-Day Weather Forecast

Advertisements
Track Severe Weather on mobile